Time;durP1;ratioP1;P1;durP2;ratioP2;P2;SDS_P1;SDS_P2;PMS_P1;PMS_P2;Temp;Humidity;BMP_temperature;BMP_pressure;BME280_temperature;BME280_humidity;BME280_pressure;Samples;Min_cycle;Max_cycle;Signal;HPM_P1;HPM_P2
2022/01/19 00:01:26;;;;;;;16.17;9.57;;;9.20;99.90;;;;;;5051888;28;20220;-63
2022/01/19 00:03:53;;;;;;;18.70;14.00;;;9.20;99.90;;;;;;5051925;28;20235;-64
2022/01/19 00:06:20;;;;;;;50.63;32.95;;;9.20;99.90;;;;;;5051595;28;20743;-64
2022/01/19 00:08:47;;;;;;;43.13;32.33;;;9.20;99.90;;;;;;5053273;28;20223;-62
2022/01/19 00:11:14;;;;;;;40.58;24.52;;;9.20;99.90;;;;;;5058711;28;20245;-63
2022/01/19 00:13:43;;;;;;;27.73;17.13;;;9.20;99.90;;;;;;5052081;28;20237;-64
2022/01/19 00:16:09;;;;;;;12.57;8.55;;;9.20;99.90;;;;;;5049682;28;20229;-64
2022/01/19 00:18:36;;;;;;;19.08;14.38;;;9.20;99.90;;;;;;5054729;28;20231;-63
2022/01/19 00:21:04;;;;;;;14.13;9.57;;;9.20;99.90;;;;;;5048849;28;20230;-64
2022/01/19 00:23:31;;;;;;;15.38;9.18;;;9.20;99.90;;;;;;5055783;28;20241;-63
2022/01/19 00:25:58;;;;;;;20.92;15.60;;;9.10;99.90;;;;;;5055764;28;20237;-64
2022/01/19 00:28:25;;;;;;;20.48;12.85;;;9.10;99.90;;;;;;5055689;28;20218;-62
2022/01/19 00:30:54;;;;;;;24.65;17.80;;;9.10;99.90;;;;;;5055548;28;20226;-63
2022/01/19 00:33:21;;;;;;;48.42;29.65;;;9.10;99.90;;;;;;5055317;28;20241;-64
2022/01/19 00:35:48;;;;;;;17.05;10.82;;;9.10;99.90;;;;;;5049618;28;20219;-63
2022/01/19 00:38:15;;;;;;;13.05;11.27;;;9.10;99.90;;;;;;5048396;28;20227;-64
2022/01/19 00:40:42;;;;;;;19.38;12.20;;;9.10;99.90;;;;;;5055611;28;20241;-63
2022/01/19 00:43:09;;;;;;;32.22;21.02;;;9.10;99.90;;;;;;5055068;28;20227;-64
2022/01/19 00:45:36;;;;;;;20.15;14.35;;;9.10;99.90;;;;;;5053615;28;20227;-63
2022/01/19 00:48:05;;;;;;;14.50;11.15;;;9.10;99.90;;;;;;5055473;28;20225;-63
2022/01/19 00:50:32;;;;;;;15.02;9.25;;;9.10;99.90;;;;;;5036928;28;20230;-62
2022/01/19 00:52:59;;;;;;;27.83;17.52;;;9.10;99.90;;;;;;5055396;28;20414;-64
2022/01/19 00:55:27;;;;;;;24.85;16.25;;;9.00;99.90;;;;;;5054912;28;20553;-63
2022/01/19 00:57:55;;;;;;;27.13;16.85;;;9.00;99.90;;;;;;5046732;28;20217;-63
2022/01/19 01:00:24;;;;;;;32.95;21.55;;;9.00;99.90;;;;;;5054546;28;20238;-64
2022/01/19 01:02:51;;;;;;;20.02;13.75;;;9.10;99.90;;;;;;5055358;28;20234;-64
2022/01/19 01:05:21;;;;;;;24.00;11.80;;;9.10;99.90;;;;;;5054548;28;20238;-62
2022/01/19 01:07:48;;;;;;;10.90;7.55;;;9.00;99.90;;;;;;5055171;28;20244;-63
2022/01/19 01:10:19;;;;;;;27.42;18.58;;;9.10;99.90;;;;;;5054580;28;20232;-64
2022/01/19 01:12:49;;;;;;;22.90;12.77;;;9.00;99.90;;;;;;5055211;28;20682;-63
2022/01/19 01:15:27;;;;;;;13.75;9.02;;;9.00;99.90;;;;;;5053580;28;20238;-63
2022/01/19 01:20:41;;;;;;;20.45;13.43;;;9.00;99.90;;;;;;5050046;28;20234;-63
2022/01/19 01:23:09;;;;;;;13.10;8.32;;;9.00;99.90;;;;;;5052433;28;20220;-63
2022/01/19 01:25:36;;;;;;;21.27;14.75;;;9.10;99.90;;;;;;5053749;28;20234;-63
2022/01/19 01:28:03;;;;;;;13.50;8.13;;;9.10;99.90;;;;;;5054505;28;20560;-63
2022/01/19 01:30:30;;;;;;;11.63;6.75;;;9.10;99.90;;;;;;5054199;28;20233;-64
2022/01/19 01:32:57;;;;;;;18.42;13.05;;;9.10;99.90;;;;;;5053951;28;20340;-63
2022/01/19 01:35:24;;;;;;;15.20;9.70;;;9.00;99.90;;;;;;5054062;28;20253;-64
2022/01/19 01:37:52;;;;;;;16.25;10.70;;;9.00;99.90;;;;;;5053930;28;20234;-64
2022/01/19 01:40:22;;;;;;;18.83;12.35;;;9.00;99.90;;;;;;5053780;28;20234;-62
2022/01/19 01:42:48;;;;;;;15.50;11.15;;;9.00;99.90;;;;;;5042191;28;20611;-64
2022/01/19 01:45:17;;;;;;;23.98;12.02;;;9.00;99.90;;;;;;5046493;28;20227;-63
2022/01/19 01:47:48;;;;;;;19.00;14.20;;;9.00;99.90;;;;;;5044324;28;21130;-63
2022/01/19 01:55:45;;;;;;;17.95;11.70;;;9.00;99.90;;;;;;5052710;28;20771;-63
2022/01/19 01:58:12;;;;;;;18.77;11.90;;;9.00;99.90;;;;;;5045136;28;20219;-63
2022/01/19 02:00:39;;;;;;;18.98;13.13;;;9.00;99.90;;;;;;5054436;28;20227;-63
2022/01/19 02:03:06;;;;;;;24.40;15.82;;;8.90;99.90;;;;;;5054264;28;20708;-63
2022/01/19 02:05:36;;;;;;;17.75;12.20;;;8.90;99.90;;;;;;5053780;28;20230;-63
2022/01/19 02:08:10;;;;;;;18.98;11.27;;;8.90;99.90;;;;;;5047119;28;20282;-63
2022/01/19 02:10:43;;;;;;;18.50;11.45;;;8.90;99.90;;;;;;5041993;28;20242;-63
2022/01/19 02:16:14;;;;;;;28.10;13.48;;;8.90;99.90;;;;;;5052568;28;20791;-63
2022/01/19 02:21:45;;;;;;;21.58;11.80;;;9.00;99.90;;;;;;5057637;28;20237;-63
2022/01/19 02:24:15;;;;;;;14.02;11.43;;;8.90;99.90;;;;;;5050160;28;20213;-63
2022/01/19 02:26:54;;;;;;;21.52;14.70;;;8.90;99.90;;;;;;5041223;28;20222;-63
2022/01/19 02:40:29;;;;;;;25.08;15.25;;;8.90;99.90;;;;;;5051698;28;20242;-63
2022/01/19 02:43:07;;;;;;;19.65;13.75;;;9.00;99.90;;;;;;5053574;28;20280;-63
2022/01/19 02:51:05;;;;;;;17.55;12.55;;;8.90;99.90;;;;;;5053191;28;20238;-64
2022/01/19 02:53:35;;;;;;;17.23;11.18;;;8.90;99.90;;;;;;5052912;28;20563;-64
2022/01/19 02:56:07;;;;;;;14.80;11.10;;;8.90;99.90;;;;;;5040665;28;20235;-64
2022/01/19 02:58:39;;;;;;;17.77;12.05;;;8.90;99.90;;;;;;5053033;28;20235;-64
2022/01/19 03:09:24;;;;;;;16.02;11.25;;;8.90;99.90;;;;;;5053246;28;20253;-64
2022/01/19 03:11:51;;;;;;;25.63;12.63;;;9.00;99.90;;;;;;5052827;28;20262;-63
2022/01/19 03:14:18;;;;;;;17.92;11.18;;;9.00;99.90;;;;;;5053391;28;20226;-63
2022/01/19 03:16:45;;;;;;;14.10;11.02;;;9.00;99.90;;;;;;5052410;28;20234;-63
2022/01/19 03:19:12;;;;;;;16.17;11.52;;;9.00;99.90;;;;;;5053137;28;20240;-63
2022/01/19 03:21:40;;;;;;;20.08;11.52;;;9.00;99.90;;;;;;5045350;28;20226;-63
2022/01/19 03:24:10;;;;;;;21.88;12.45;;;9.00;99.90;;;;;;5053037;28;20238;-63
2022/01/19 03:26:39;;;;;;;15.65;11.13;;;9.00;99.90;;;;;;5052441;28;20226;-63
2022/01/19 03:29:05;;;;;;;15.63;8.82;;;8.90;99.90;;;;;;5053062;28;20684;-63
2022/01/19 03:31:32;;;;;;;12.13;8.93;;;8.90;99.90;;;;;;5052294;28;20684;-63
2022/01/19 03:33:59;;;;;;;14.77;11.20;;;9.00;99.90;;;;;;5052760;28;20227;-63
2022/01/19 03:36:26;;;;;;;16.33;11.13;;;9.00;99.90;;;;;;5045958;28;20223;-64
2022/01/19 03:38:54;;;;;;;17.48;14.27;;;9.00;99.90;;;;;;5046277;28;20222;-64
2022/01/19 03:41:20;;;;;;;17.65;11.38;;;9.00;99.90;;;;;;5052771;28;20570;-64
2022/01/19 03:43:49;;;;;;;22.63;13.00;;;8.90;99.90;;;;;;5052332;28;20230;-63
2022/01/19 03:46:16;;;;;;;20.05;13.60;;;8.90;99.90;;;;;;5052743;28;20222;-63
2022/01/19 03:48:52;;;;;;;13.50;11.73;;;8.90;99.90;;;;;;5051977;28;20231;-63
2022/01/19 03:51:19;;;;;;;18.13;13.05;;;8.90;99.90;;;;;;5052362;28;20229;-63
2022/01/19 03:53:47;;;;;;;19.25;13.50;;;8.90;99.90;;;;;;5043553;28;20227;-63
2022/01/19 03:56:14;;;;;;;17.15;12.82;;;8.90;99.90;;;;;;5048222;28;20753;-63
2022/01/19 03:58:41;;;;;;;17.35;12.63;;;9.00;99.90;;;;;;5048292;28;20230;-63
2022/01/19 04:01:10;;;;;;;13.13;11.10;;;8.90;99.90;;;;;;5052603;28;20227;-63
2022/01/19 04:04:05;;;;;;;21.23;13.50;;;9.00;99.90;;;;;;5052105;28;20226;-63
2022/01/19 04:06:52;;;;;;;16.05;12.63;;;8.90;99.90;;;;;;5051910;28;20238;-62
2022/01/19 04:09:19;;;;;;;17.63;11.65;;;8.90;99.90;;;;;;5052575;28;20227;-63
2022/01/19 04:11:46;;;;;;;13.80;10.90;;;8.90;99.90;;;;;;5051818;28;20241;-63
2022/01/19 04:14:26;;;;;;;15.32;11.30;;;8.90;99.90;;;;;;5052400;28;20639;-63
2022/01/19 04:16:57;;;;;;;14.85;11.35;;;9.00;99.90;;;;;;5051404;28;20235;-63
2022/01/19 04:19:27;;;;;;;16.33;12.40;;;8.90;99.90;;;;;;5051996;28;20238;-63
2022/01/19 04:21:55;;;;;;;25.10;15.15;;;8.90;99.90;;;;;;5045340;28;20330;-62
2022/01/19 04:24:23;;;;;;;22.58;15.25;;;9.00;99.90;;;;;;5052260;28;20232;-63
2022/01/19 04:27:11;;;;;;;19.45;12.60;;;9.00;99.90;;;;;;5051887;28;20227;-63
2022/01/19 04:29:38;;;;;;;25.38;13.18;;;9.00;99.90;;;;;;5051661;28;20697;-63
2022/01/19 04:32:11;;;;;;;24.70;18.02;;;9.00;99.90;;;;;;5052241;28;20253;-63
2022/01/19 04:34:40;;;;;;;16.15;11.95;;;9.00;99.90;;;;;;5051721;28;20222;-62
2022/01/19 04:37:28;;;;;;;18.70;11.52;;;9.00;99.90;;;;;;5039622;28;20223;-63
2022/01/19 04:48:23;;;;;;;21.50;13.98;;;8.90;99.90;;;;;;5042725;28;20215;-62
2022/01/19 05:01:52;;;;;;;16.20;12.38;;;8.80;99.90;;;;;;5051085;28;20238;-63
2022/01/19 05:04:31;;;;;;;16.35;13.73;;;8.80;99.90;;;;;;5053117;28;20284;-63
2022/01/19 05:07:10;;;;;;;18.50;13.55;;;8.80;99.90;;;;;;5054878;28;20236;-63
2022/01/19 05:09:58;;;;;;;19.20;14.85;;;8.80;99.90;;;;;;5055965;28;20233;-63
2022/01/19 05:15:10;;;;;;;16.65;14.00;;;8.80;99.90;;;;;;5033745;28;20226;-63
2022/01/19 05:17:37;;;;;;;13.98;12.55;;;8.80;99.90;;;;;;5035085;28;20231;-63
2022/01/19 05:20:06;;;;;;;17.33;12.95;;;8.80;99.90;;;;;;5035245;28;20235;-63
2022/01/19 05:22:33;;;;;;;18.73;12.18;;;8.80;99.90;;;;;;5026879;28;20231;-64
2022/01/19 05:25:00;;;;;;;15.82;12.65;;;8.80;99.90;;;;;;5035269;28;20251;-63
2022/01/19 05:27:27;;;;;;;14.32;11.18;;;8.80;99.90;;;;;;5035046;28;20242;-63
2022/01/19 05:29:54;;;;;;;19.52;11.50;;;8.80;99.90;;;;;;5035076;28;20237;-63
2022/01/19 05:32:22;;;;;;;17.05;14.50;;;8.80;99.90;;;;;;5035190;28;20236;-64
2022/01/19 05:34:48;;;;;;;15.43;13.57;;;8.80;99.90;;;;;;5034968;28;20596;-63
2022/01/19 05:37:17;;;;;;;15.32;13.60;;;8.80;99.90;;;;;;5035086;28;20227;-64
2022/01/19 05:39:44;;;;;;;17.15;13.45;;;8.70;99.90;;;;;;5034593;28;20226;-64
2022/01/19 05:42:14;;;;;;;15.55;12.20;;;8.70;99.90;;;;;;5035136;28;20224;-64
2022/01/19 05:44:43;;;;;;;23.05;14.88;;;8.70;99.90;;;;;;5034611;28;20227;-64
2022/01/19 05:47:10;;;;;;;21.38;17.38;;;8.70;99.90;;;;;;5035116;28;20226;-64
2022/01/19 05:49:37;;;;;;;19.08;14.07;;;8.70;99.90;;;;;;5034125;28;20239;-64
2022/01/19 05:52:05;;;;;;;20.88;14.05;;;8.70;99.90;;;;;;5034926;28;20223;-64
2022/01/19 05:54:33;;;;;;;16.73;12.48;;;8.70;99.90;;;;;;5034531;28;20610;-62
2022/01/19 05:57:00;;;;;;;18.92;14.75;;;8.70;99.90;;;;;;5034929;28;20222;-63
2022/01/19 05:59:27;;;;;;;18.70;14.57;;;8.70;99.90;;;;;;5034450;28;20231;-64
2022/01/19 06:01:55;;;;;;;20.15;15.80;;;8.70;99.90;;;;;;5034972;28;20562;-64
2022/01/19 06:04:22;;;;;;;19.45;16.02;;;8.70;99.90;;;;;;5034421;28;20232;-63
2022/01/19 06:06:50;;;;;;;23.25;14.48;;;8.80;99.90;;;;;;5034281;28;20234;-63
2022/01/19 06:09:33;;;;;;;18.83;15.32;;;8.70;99.90;;;;;;5034718;28;20231;-63
2022/01/19 06:12:05;;;;;;;20.88;15.68;;;8.70;99.90;;;;;;5034454;28;20242;-64
2022/01/19 06:14:32;;;;;;;28.10;16.25;;;8.60;99.90;;;;;;5033942;28;20689;-64
2022/01/19 06:17:00;;;;;;;17.45;13.95;;;8.60;99.90;;;;;;5033614;28;20680;-65
2022/01/19 06:19:27;;;;;;;22.88;14.77;;;8.60;99.90;;;;;;5034318;28;20232;-63
2022/01/19 06:21:55;;;;;;;22.63;13.23;;;8.60;99.90;;;;;;5033933;28;20232;-63
2022/01/19 06:24:22;;;;;;;17.23;13.50;;;8.60;99.90;;;;;;5034240;28;20238;-63
2022/01/19 06:26:49;;;;;;;17.08;14.23;;;8.60;99.90;;;;;;5033931;28;20234;-64
2022/01/19 06:29:17;;;;;;;18.45;15.75;;;8.60;99.90;;;;;;5034399;28;20254;-64
2022/01/19 06:31:44;;;;;;;21.20;14.30;;;8.50;99.90;;;;;;5033490;28;20580;-63
2022/01/19 06:34:11;;;;;;;18.42;13.25;;;8.50;99.90;;;;;;5034285;28;20697;-63
2022/01/19 06:36:38;;;;;;;20.25;14.20;;;8.50;99.90;;;;;;5033584;28;20238;-64
2022/01/19 06:39:06;;;;;;;19.23;15.30;;;8.50;99.90;;;;;;5033985;28;20576;-64
2022/01/19 06:41:33;;;;;;;21.88;16.50;;;8.60;99.90;;;;;;5033895;28;20227;-64
2022/01/19 06:44:00;;;;;;;20.63;16.33;;;8.50;99.90;;;;;;5033581;28;20231;-64
2022/01/19 06:46:29;;;;;;;19.83;15.52;;;8.50;99.90;;;;;;5033915;28;20560;-63
2022/01/19 06:48:55;;;;;;;24.00;14.95;;;8.50;99.90;;;;;;5033575;28;20226;-63
2022/01/19 06:51:23;;;;;;;20.17;13.80;;;8.50;99.90;;;;;;5033754;28;20270;-63
2022/01/19 06:53:50;;;;;;;15.18;13.05;;;8.50;99.90;;;;;;5033343;28;20235;-63
2022/01/19 06:56:17;;;;;;;21.15;15.25;;;8.50;99.90;;;;;;5033689;28;20281;-63
2022/01/19 06:58:43;;;;;;;17.73;14.15;;;8.50;99.90;;;;;;5033308;28;20237;-63
2022/01/19 07:01:10;;;;;;;19.63;13.30;;;8.40;99.90;;;;;;5033646;28;20230;-63
2022/01/19 07:03:38;;;;;;;19.90;14.65;;;8.40;99.90;;;;;;5033643;28;20235;-63
2022/01/19 07:06:07;;;;;;;21.67;13.55;;;8.30;99.90;;;;;;5033424;28;20235;-63
2022/01/19 07:08:34;;;;;;;17.67;14.68;;;8.20;99.90;;;;;;5033513;28;20235;-64
2022/01/19 07:11:01;;;;;;;16.00;13.45;;;8.20;99.90;;;;;;5032864;28;20239;-63
2022/01/19 07:13:28;;;;;;;16.65;12.65;;;8.20;99.90;;;;;;5033297;28;20232;-63
2022/01/19 07:15:55;;;;;;;14.75;12.32;;;8.30;99.90;;;;;;5033040;28;20222;-63
2022/01/19 07:18:22;;;;;;;14.65;12.52;;;8.30;99.90;;;;;;5033497;28;20238;-63
2022/01/19 07:20:50;;;;;;;19.15;13.65;;;8.20;99.90;;;;;;5032524;28;20238;-62
2022/01/19 07:23:17;;;;;;;24.90;14.00;;;8.20;99.90;;;;;;5033366;28;20249;-63
2022/01/19 07:25:44;;;;;;;20.40;13.98;;;8.20;99.90;;;;;;5032828;28;20226;-64
2022/01/19 07:28:11;;;;;;;15.90;11.40;;;8.20;99.90;;;;;;5032957;28;20229;-62
2022/01/19 07:30:38;;;;;;;15.30;11.40;;;8.10;99.90;;;;;;5033291;28;20226;-64
2022/01/19 07:33:05;;;;;;;19.13;13.50;;;8.10;99.90;;;;;;5032572;28;20234;-63
2022/01/19 07:35:31;;;;;;;15.45;11.10;;;8.20;99.90;;;;;;5033026;28;20238;-63
2022/01/19 07:38:00;;;;;;;11.65;10.45;;;8.20;99.90;;;;;;5032612;28;20226;-63
2022/01/19 07:40:27;;;;;;;14.90;10.63;;;8.20;99.90;;;;;;5032925;28;20227;-63
2022/01/19 07:42:54;;;;;;;12.60;9.77;;;8.20;99.90;;;;;;5032683;28;20230;-63
2022/01/19 07:45:21;;;;;;;14.50;9.25;;;8.20;99.90;;;;;;5033034;28;20237;-64
2022/01/19 07:47:48;;;;;;;11.48;9.10;;;8.30;99.90;;;;;;5032562;28;20228;-63
2022/01/19 07:50:15;;;;;;;16.27;9.07;;;8.20;99.90;;;;;;5032880;28;20239;-64
2022/01/19 07:52:42;;;;;;;13.82;8.30;;;8.20;99.90;;;;;;5032818;28;20226;-63
2022/01/19 07:55:11;;;;;;;14.15;9.02;;;8.20;99.90;;;;;;5032545;28;21040;-64
2022/01/19 07:57:40;;;;;;;12.88;9.48;;;8.20;99.90;;;;;;5032787;28;20226;-64
2022/01/19 08:00:08;;;;;;;20.67;9.32;;;8.20;99.90;;;;;;5032260;28;20279;-64
2022/01/19 08:02:35;;;;;;;21.70;10.18;;;8.20;99.90;;;;;;5032669;28;20237;-62
2022/01/19 08:05:03;;;;;;;13.50;9.48;;;8.10;99.90;;;;;;5032372;28;20572;-63
2022/01/19 08:07:30;;;;;;;22.38;10.63;;;8.10;99.90;;;;;;5032531;28;20289;-63
2022/01/19 08:09:57;;;;;;;17.00;10.48;;;8.10;99.90;;;;;;5032174;28;20250;-63
2022/01/19 08:12:25;;;;;;;19.48;11.63;;;8.10;99.90;;;;;;5032764;28;20230;-63
2022/01/19 08:14:52;;;;;;;14.68;8.40;;;8.10;99.90;;;;;;5032007;28;20232;-63
2022/01/19 08:17:19;;;;;;;13.45;8.82;;;8.10;99.90;;;;;;5032746;28;20227;-63
2022/01/19 08:19:47;;;;;;;14.60;8.52;;;8.20;99.90;;;;;;5032342;28;20235;-63
2022/01/19 08:22:23;;;;;;;13.93;8.77;;;8.20;99.90;;;;;;5032346;28;21340;-63
2022/01/19 08:24:50;;;;;;;14.57;8.30;;;8.10;99.90;;;;;;5032054;28;20238;-63
2022/01/19 08:27:17;;;;;;;13.15;7.35;;;8.10;99.90;;;;;;5032483;28;20226;-63
2022/01/19 08:29:45;;;;;;;13.20;10.63;;;8.10;99.90;;;;;;5032342;28;20690;-63
2022/01/19 08:32:12;;;;;;;13.15;9.48;;;8.00;99.90;;;;;;5032000;28;20230;-63
2022/01/19 08:34:39;;;;;;;15.50;9.40;;;8.10;99.90;;;;;;5032560;28;20242;-63
2022/01/19 08:37:08;;;;;;;13.65;10.45;;;8.00;99.90;;;;;;5031889;28;20242;-63
2022/01/19 08:39:35;;;;;;;13.75;9.60;;;8.00;99.90;;;;;;5035164;28;20234;-63
2022/01/19 08:42:02;;;;;;;28.15;20.20;;;8.00;99.90;;;;;;5035906;28;20227;-64
2022/01/19 08:44:29;;;;;;;18.63;13.57;;;8.00;99.90;;;;;;5036211;28;20227;-63
2022/01/19 08:46:57;;;;;;;17.85;12.95;;;7.90;99.90;;;;;;5035859;28;20696;-63
2022/01/19 08:49:24;;;;;;;17.02;12.30;;;7.90;99.90;;;;;;5036214;28;20223;-63
2022/01/19 08:51:51;;;;;;;12.05;9.88;;;8.00;99.90;;;;;;5036074;28;20222;-63
2022/01/19 08:54:18;;;;;;;24.75;14.50;;;8.00;99.90;;;;;;5035665;28;20218;-63
2022/01/19 08:56:44;;;;;;;15.02;11.95;;;8.00;99.90;;;;;;5036111;28;20221;-63
2022/01/19 08:59:11;;;;;;;12.90;10.07;;;8.00;99.90;;;;;;5035532;28;20229;-63
2022/01/19 09:01:38;;;;;;;13.82;8.13;;;7.90;99.90;;;;;;5035820;28;20226;-63
2022/01/19 09:04:06;;;;;;;16.08;8.93;;;8.00;99.90;;;;;;5035636;28;20235;-63
2022/01/19 09:06:33;;;;;;;15.80;10.20;;;8.00;99.90;;;;;;5035889;28;20241;-63
2022/01/19 09:09:00;;;;;;;20.60;18.40;;;8.00;99.90;;;;;;5035567;28;20222;-63
2022/01/19 09:11:27;;;;;;;13.35;11.95;;;8.00;99.90;;;;;;5035834;28;20231;-63
2022/01/19 09:13:54;;;;;;;15.05;10.55;;;7.90;99.90;;;;;;5035619;28;20241;-63
2022/01/19 09:16:21;;;;;;;10.35;8.15;;;8.00;99.90;;;;;;5035607;28;20215;-63
2022/01/19 09:18:48;;;;;;;11.77;8.73;;;8.00;99.90;;;;;;5035601;28;20226;-63
2022/01/19 09:21:16;;;;;;;9.90;7.35;;;8.00;99.90;;;;;;5028761;28;20231;-63
2022/01/19 09:23:43;;;;;;;9.82;7.47;;;8.10;99.90;;;;;;5024260;28;20227;-63
2022/01/19 09:26:10;;;;;;;9.23;8.32;;;8.00;99.90;;;;;;5027961;28;20238;-63
2022/01/19 09:28:37;;;;;;;14.10;8.25;;;8.00;99.90;;;;;;5016204;28;20235;-63
2022/01/19 09:31:12;;;;;;;9.43;8.60;;;7.90;99.90;;;;;;5014470;28;20258;-63
2022/01/19 09:33:41;;;;;;;10.80;8.02;;;7.90;99.90;;;;;;5025810;28;20310;-63
2022/01/19 09:36:29;;;;;;;10.05;8.13;;;7.90;99.90;;;;;;5033046;28;20236;-64
2022/01/19 09:38:57;;;;;;;10.10;8.50;;;7.90;99.90;;;;;;5032766;28;20223;-64
2022/01/19 09:41:25;;;;;;;11.20;8.13;;;7.90;99.90;;;;;;5031984;28;20231;-64
2022/01/19 09:43:52;;;;;;;8.10;6.78;;;8.00;99.90;;;;;;5035172;28;20223;-63
2022/01/19 09:46:19;;;;;;;16.40;8.32;;;8.10;99.90;;;;;;5034249;28;20353;-63
2022/01/19 09:48:46;;;;;;;11.20;9.95;;;8.10;99.90;;;;;;5020217;28;20248;-63
2022/01/19 09:51:14;;;;;;;10.25;8.90;;;8.10;99.90;;;;;;5034443;28;20282;-64
2022/01/19 09:53:41;;;;;;;9.60;8.32;;;8.10;99.90;;;;;;5034696;28;20238;-64
2022/01/19 09:56:10;;;;;;;19.85;8.13;;;8.20;99.90;;;;;;5034272;28;20223;-62
2022/01/19 09:58:37;;;;;;;10.70;8.85;;;8.20;99.90;;;;;;5034659;28;20686;-63
2022/01/19 10:01:04;;;;;;;11.70;9.02;;;8.20;99.90;;;;;;5033840;28;20238;-63
2022/01/19 10:03:33;;;;;;;14.75;8.48;;;8.30;99.90;;;;;;5032211;28;20228;-64
2022/01/19 10:06:03;;;;;;;14.25;8.52;;;8.20;99.90;;;;;;5029629;28;20297;-64
2022/01/19 10:08:32;;;;;;;11.18;8.10;;;8.30;99.90;;;;;;5028675;28;20214;-64
2022/01/19 10:11:15;;;;;;;10.15;8.27;;;8.40;99.90;;;;;;5034260;28;20240;-64
2022/01/19 10:19:17;;;;;;;12.60;8.60;;;8.60;99.90;;;;;;5034161;28;20238;-64
2022/01/19 10:22:12;;;;;;;10.15;8.70;;;8.60;99.90;;;;;;5033328;28;20239;-64
2022/01/19 10:24:47;;;;;;;9.68;8.68;;;8.60;99.90;;;;;;5030263;28;20242;-64
2022/01/19 10:27:32;;;;;;;10.25;8.98;;;8.70;99.90;;;;;;5023413;28;20230;-64
2022/01/19 10:30:25;;;;;;;11.80;9.95;;;8.70;99.90;;;;;;5022206;28;20681;-64
2022/01/19 10:32:55;;;;;;;10.00;8.80;;;8.70;99.90;;;;;;5030232;28;20562;-64
2022/01/19 10:35:33;;;;;;;10.07;9.07;;;8.70;99.90;;;;;;5026417;28;20305;-64
2022/01/19 10:38:12;;;;;;;13.63;8.30;;;8.70;99.90;;;;;;5023596;28;20574;-64
2022/01/19 10:40:41;;;;;;;12.57;9.10;;;8.60;99.90;;;;;;5033427;28;20230;-64
2022/01/19 10:43:29;;;;;;;10.50;7.80;;;8.70;99.90;;;;;;5033898;28;20253;-64
2022/01/19 10:45:58;;;;;;;10.63;9.63;;;8.70;99.90;;;;;;5033321;28;20668;-64
2022/01/19 10:48:37;;;;;;;13.43;10.40;;;8.70;99.90;;;;;;5032258;28;20246;-64
2022/01/19 10:51:12;;;;;;;10.15;9.15;;;8.60;99.90;;;;;;5033040;28;20239;-64
2022/01/19 10:53:41;;;;;;;12.20;10.27;;;8.70;99.90;;;;;;5032870;28;20242;-64
2022/01/19 10:56:24;;;;;;;17.67;12.02;;;8.60;99.90;;;;;;5033814;28;20229;-64
2022/01/19 10:58:58;;;;;;;12.10;10.10;;;8.60;99.90;;;;;;5033025;28;20226;-63
2022/01/19 11:01:36;;;;;;;17.00;12.88;;;8.60;99.90;;;;;;5032932;28;20231;-64
2022/01/19 11:04:22;;;;;;;12.88;10.85;;;8.50;99.90;;;;;;5030148;28;20223;-63
2022/01/19 11:06:50;;;;;;;15.85;14.27;;;8.60;99.90;;;;;;5032732;28;20724;-64
2022/01/19 11:09:22;;;;;;;13.70;12.30;;;8.60;99.90;;;;;;5032862;28;20231;-64
2022/01/19 11:11:49;;;;;;;18.13;16.23;;;8.50;99.90;;;;;;5031140;28;20308;-64
2022/01/19 11:14:17;;;;;;;22.52;16.45;;;8.50;99.90;;;;;;5031579;28;20702;-64
2022/01/19 11:16:45;;;;;;;20.50;16.85;;;8.40;99.90;;;;;;5031232;28;20223;-64
2022/01/19 11:19:13;;;;;;;15.60;14.10;;;8.40;99.90;;;;;;5031505;28;20235;-64
2022/01/19 11:21:51;;;;;;;17.35;15.23;;;8.40;99.90;;;;;;5031412;28;20235;-64
2022/01/19 11:24:29;;;;;;;17.83;16.02;;;8.40;99.90;;;;;;5032088;28;20276;-64
2022/01/19 11:26:57;;;;;;;18.95;17.00;;;8.40;99.90;;;;;;5025020;28;20215;-64
2022/01/19 11:29:26;;;;;;;16.08;14.38;;;8.40;99.90;;;;;;5033165;28;20250;-64
2022/01/19 11:31:54;;;;;;;18.42;16.58;;;8.40;99.90;;;;;;5032574;28;20245;-64
2022/01/19 11:34:42;;;;;;;18.00;16.10;;;8.40;99.90;;;;;;5032867;28;20686;-64
2022/01/19 11:37:09;;;;;;;23.88;17.25;;;8.40;99.90;;;;;;5020851;28;20559;-64
2022/01/19 11:39:36;;;;;;;18.35;16.38;;;8.30;99.90;;;;;;5032500;28;20672;-64
2022/01/19 11:42:05;;;;;;;19.63;17.60;;;8.20;99.90;;;;;;5032983;28;20237;-64
2022/01/19 11:44:42;;;;;;;21.52;19.33;;;8.10;99.90;;;;;;5032436;28;20231;-64
2022/01/19 11:47:22;;;;;;;21.70;17.52;;;8.10;99.90;;;;;;5032784;28;20223;-64
2022/01/19 11:49:52;;;;;;;21.23;18.75;;;8.10;99.90;;;;;;5031367;28;20229;-64
2022/01/19 11:52:22;;;;;;;28.52;22.75;;;8.10;99.90;;;;;;5028765;28;20223;-64
2022/01/19 11:54:51;;;;;;;30.67;23.77;;;8.00;99.90;;;;;;5032473;28;20232;-64
2022/01/19 11:57:19;;;;;;;21.15;18.85;;;7.90;99.90;;;;;;5032342;28;20230;-64
2022/01/19 12:00:24;;;;;;;22.30;19.85;;;8.00;99.90;;;;;;5032428;28;20572;-64
2022/01/19 12:02:54;;;;;;;25.75;21.67;;;7.90;99.90;;;;;;5032535;28;20233;-64
2022/01/19 12:05:26;;;;;;;25.10;22.40;;;7.80;99.90;;;;;;5032634;28;20238;-64
2022/01/19 12:07:57;;;;;;;22.83;20.00;;;7.60;99.90;;;;;;5031795;28;20221;-63
2022/01/19 12:10:43;;;;;;;23.70;17.70;;;7.60;99.90;;;;;;5032406;28;20250;-63
2022/01/19 12:13:33;;;;;;;17.95;16.05;;;7.50;99.90;;;;;;5032771;28;20876;-64
2022/01/19 12:16:08;;;;;;;22.02;17.15;;;7.40;99.90;;;;;;5036293;28;20245;-63
2022/01/19 12:18:47;;;;;;;21.80;16.17;;;7.40;99.90;;;;;;5036551;28;20222;-64
2022/01/19 12:21:16;;;;;;;19.08;16.88;;;7.30;99.90;;;;;;5036157;28;20295;-63
2022/01/19 12:23:44;;;;;;;19.13;16.95;;;7.30;99.90;;;;;;5036361;28;20231;-64
2022/01/19 12:26:13;;;;;;;18.45;15.70;;;7.30;99.90;;;;;;5020329;28;20614;-63
2022/01/19 12:28:46;;;;;;;17.45;15.00;;;7.30;99.90;;;;;;5029694;28;20230;-63
2022/01/19 12:31:35;;;;;;;20.02;16.55;;;7.40;99.90;;;;;;5023277;28;20238;-63
2022/01/19 12:34:23;;;;;;;17.50;14.02;;;7.40;99.90;;;;;;5033049;28;20688;-62
2022/01/19 12:36:54;;;;;;;16.50;14.77;;;7.40;99.90;;;;;;5029529;28;20226;-63
2022/01/19 12:39:45;;;;;;;16.40;14.80;;;7.40;99.90;;;;;;5035120;28;20214;-62
2022/01/19 12:42:17;;;;;;;18.30;16.27;;;7.40;99.90;;;;;;5055567;28;20231;-64
2022/01/19 12:44:50;;;;;;;16.35;14.55;;;7.40;99.90;;;;;;5056154;28;20235;-63
2022/01/19 12:47:48;;;;;;;17.23;15.38;;;7.40;99.90;;;;;;5055560;28;20245;-63
2022/01/19 12:50:45;;;;;;;20.20;16.55;;;7.30;99.90;;;;;;5055482;28;20230;-63
2022/01/19 12:53:18;;;;;;;15.35;13.85;;;7.10;99.90;;;;;;5049339;28;20226;-63
2022/01/19 12:55:48;;;;;;;28.38;16.48;;;7.00;99.90;;;;;;5056016;28;20228;-63
2022/01/19 12:58:18;;;;;;;22.52;16.00;;;6.90;99.90;;;;;;5055067;28;20228;-63
2022/01/19 13:00:49;;;;;;;16.58;14.82;;;6.80;99.90;;;;;;5055679;28;20238;-63
2022/01/19 13:03:22;;;;;;;22.40;17.40;;;6.80;99.90;;;;;;5055023;28;20225;-62
2022/01/19 13:05:52;;;;;;;18.73;15.82;;;6.80;99.90;;;;;;5055740;28;20220;-63
2022/01/19 13:08:49;;;;;;;17.20;15.40;;;6.80;99.90;;;;;;5055110;28;20308;-63
2022/01/19 13:11:22;;;;;;;20.77;18.77;;;6.80;99.90;;;;;;5046425;28;20258;-63
2022/01/19 13:13:56;;;;;;;20.63;18.50;;;6.80;99.90;;;;;;5055399;28;20226;-63
2022/01/19 13:16:49;;;;;;;24.02;21.52;;;6.80;99.90;;;;;;5054929;28;20247;-63
2022/01/19 13:19:20;;;;;;;23.45;20.92;;;6.80;99.90;;;;;;5045004;28;20573;-64
2022/01/19 13:21:50;;;;;;;23.33;21.10;;;6.70;99.90;;;;;;5055176;28;20228;-63
2022/01/19 13:24:23;;;;;;;24.17;19.92;;;6.70;99.90;;;;;;5054458;28;20226;-63
2022/01/19 13:26:54;;;;;;;26.33;23.45;;;6.70;99.90;;;;;;5055141;28;20218;-63
2022/01/19 13:29:25;;;;;;;30.48;25.23;;;6.80;99.90;;;;;;5054932;28;20225;-63
2022/01/19 13:31:58;;;;;;;34.85;23.50;;;6.90;99.90;;;;;;5054792;28;20225;-64
2022/01/19 13:34:26;;;;;;;23.30;19.05;;;6.80;99.90;;;;;;5054469;28;20225;-63
2022/01/19 13:36:55;;;;;;;23.30;17.67;;;6.80;99.90;;;;;;5054536;28;20561;-63
2022/01/19 13:39:24;;;;;;;18.42;14.85;;;6.80;99.90;;;;;;5054415;28;20219;-63
2022/01/19 13:41:53;;;;;;;14.98;13.52;;;6.90;99.90;;;;;;5055146;28;20662;-62
2022/01/19 13:44:25;;;;;;;15.60;14.10;;;6.90;99.90;;;;;;5054412;28;20710;-63
2022/01/19 13:46:52;;;;;;;13.35;12.10;;;6.90;99.90;;;;;;5054941;28;20543;-63
2022/01/19 13:49:19;;;;;;;13.80;12.55;;;6.80;99.90;;;;;;5054411;28;20563;-63
2022/01/19 13:51:47;;;;;;;13.75;12.38;;;6.90;99.90;;;;;;5054501;28;20241;-63
2022/01/19 13:54:14;;;;;;;14.32;13.07;;;6.90;99.90;;;;;;5054266;28;20227;-63
2022/01/19 13:56:44;;;;;;;13.35;12.15;;;6.90;99.90;;;;;;5054917;28;20674;-62
2022/01/19 13:59:14;;;;;;;12.98;11.63;;;6.80;99.90;;;;;;5047847;28;20228;-63
2022/01/19 14:01:48;;;;;;;11.68;10.65;;;6.80;99.90;;;;;;5054540;28;20221;-63